sensor_id;sensor_type;location;lat;lon;timestamp;P1;durP1;ratioP1;P2;durP2;ratioP2
49071;SDS011;52656;52.610;10.236;2023-03-01T00:01:00;21.25;;;14.35;;
49071;SDS011;52656;52.610;10.236;2023-03-01T00:03:27;21.85;;;13.77;;
49071;SDS011;52656;52.610;10.236;2023-03-01T00:05:53;21.90;;;13.80;;
49071;SDS011;52656;52.610;10.236;2023-03-01T00:08:18;22.80;;;14.10;;
49071;SDS011;52656;52.610;10.236;2023-03-01T00:10:43;23.60;;;14.20;;
49071;SDS011;52656;52.610;10.236;2023-03-01T00:13:09;24.92;;;13.73;;
49071;SDS011;52656;52.610;10.236;2023-03-01T00:15:37;22.05;;;12.88;;
49071;SDS011;52656;52.610;10.236;2023-03-01T00:18:04;20.75;;;13.40;;
49071;SDS011;52656;52.610;10.236;2023-03-01T00:20:29;21.02;;;12.50;;
49071;SDS011;52656;52.610;10.236;2023-03-01T00:22:54;20.02;;;13.07;;
49071;SDS011;52656;52.610;10.236;2023-03-01T00:25:20;21.87;;;13.03;;
49071;SDS011;52656;52.610;10.236;2023-03-01T00:27:46;23.43;;;12.67;;
49071;SDS011;52656;52.610;10.236;2023-03-01T00:30:12;21.60;;;12.63;;
49071;SDS011;52656;52.610;10.236;2023-03-01T00:32:38;18.75;;;11.88;;
49071;SDS011;52656;52.610;10.236;2023-03-01T00:35:03;18.08;;;11.57;;
49071;SDS011;52656;52.610;10.236;2023-03-01T00:37:28;18.38;;;12.20;;
49071;SDS011;52656;52.610;10.236;2023-03-01T00:39:54;24.70;;;13.53;;
49071;SDS011;52656;52.610;10.236;2023-03-01T00:42:19;18.42;;;11.60;;
49071;SDS011;52656;52.610;10.236;2023-03-01T00:44:44;19.10;;;11.70;;
49071;SDS011;52656;52.610;10.236;2023-03-01T00:47:10;18.83;;;11.13;;
49071;SDS011;52656;52.610;10.236;2023-03-01T00:49:35;21.83;;;12.23;;
49071;SDS011;52656;52.610;10.236;2023-03-01T00:52:00;18.33;;;10.93;;
49071;SDS011;52656;52.610;10.236;2023-03-01T00:54:26;15.50;;;10.82;;
49071;SDS011;52656;52.610;10.236;2023-03-01T00:56:51;18.23;;;10.43;;
49071;SDS011;52656;52.610;10.236;2023-03-01T00:59:16;17.00;;;11.33;;
49071;SDS011;52656;52.610;10.236;2023-03-01T01:01:42;19.55;;;11.73;;
49071;SDS011;52656;52.610;10.236;2023-03-01T01:04:08;20.00;;;11.23;;
49071;SDS011;52656;52.610;10.236;2023-03-01T01:06:37;17.67;;;11.05;;
49071;SDS011;52656;52.610;10.236;2023-03-01T01:09:05;18.88;;;11.52;;
49071;SDS011;52656;52.610;10.236;2023-03-01T01:11:32;20.83;;;11.68;;
49071;SDS011;52656;52.610;10.236;2023-03-01T01:13:59;15.85;;;10.45;;
49071;SDS011;52656;52.610;10.236;2023-03-01T01:16:26;18.48;;;11.00;;
49071;SDS011;52656;52.610;10.236;2023-03-01T01:18:52;18.17;;;10.38;;
49071;SDS011;52656;52.610;10.236;2023-03-01T01:21:19;17.13;;;11.20;;
49071;SDS011;52656;52.610;10.236;2023-03-01T01:23:46;16.75;;;10.85;;
49071;SDS011;52656;52.610;10.236;2023-03-01T01:26:25;18.75;;;11.85;;
49071;SDS011;52656;52.610;10.236;2023-03-01T01:28:52;16.73;;;10.27;;
49071;SDS011;52656;52.610;10.236;2023-03-01T01:31:18;17.10;;;10.68;;
49071;SDS011;52656;52.610;10.236;2023-03-01T01:33:45;18.42;;;11.25;;
49071;SDS011;52656;52.610;10.236;2023-03-01T01:36:10;18.48;;;11.23;;
49071;SDS011;52656;52.610;10.236;2023-03-01T01:38:36;18.52;;;10.32;;
49071;SDS011;52656;52.610;10.236;2023-03-01T01:41:03;17.42;;;10.88;;
49071;SDS011;52656;52.610;10.236;2023-03-01T01:43:36;18.23;;;10.27;;
49071;SDS011;52656;52.610;10.236;2023-03-01T01:46:16;20.42;;;10.43;;
49071;SDS011;52656;52.610;10.236;2023-03-01T01:49:00;17.40;;;10.40;;
49071;SDS011;52656;52.610;10.236;2023-03-01T01:51:37;18.75;;;11.82;;
49071;SDS011;52656;52.610;10.236;2023-03-01T01:54:15;20.75;;;10.27;;
49071;SDS011;52656;52.610;10.236;2023-03-01T01:56:47;16.02;;;9.82;;
49071;SDS011;52656;52.610;10.236;2023-03-01T01:59:18;17.58;;;10.88;;
49071;SDS011;52656;52.610;10.236;2023-03-01T02:01:43;17.00;;;9.52;;
49071;SDS011;52656;52.610;10.236;2023-03-01T02:04:09;18.65;;;10.68;;
49071;SDS011;52656;52.610;10.236;2023-03-01T02:06:36;19.38;;;10.00;;
49071;SDS011;52656;52.610;10.236;2023-03-01T02:09:08;16.35;;;9.82;;
49071;SDS011;52656;52.610;10.236;2023-03-01T02:11:38;17.52;;;10.27;;
49071;SDS011;52656;52.610;10.236;2023-03-01T02:14:03;19.73;;;10.25;;
49071;SDS011;52656;52.610;10.236;2023-03-01T02:16:29;21.50;;;10.43;;
49071;SDS011;52656;52.610;10.236;2023-03-01T02:18:55;15.80;;;10.60;;
49071;SDS011;52656;52.610;10.236;2023-03-01T02:23:47;17.27;;;9.60;;
49071;SDS011;52656;52.610;10.236;2023-03-01T02:26:19;15.80;;;9.75;;
49071;SDS011;52656;52.610;10.236;2023-03-01T02:29:02;21.98;;;10.70;;
49071;SDS011;52656;52.610;10.236;2023-03-01T02:31:27;20.92;;;10.65;;
49071;SDS011;52656;52.610;10.236;2023-03-01T02:34:21;17.58;;;10.35;;
49071;SDS011;52656;52.610;10.236;2023-03-01T02:39:33;16.25;;;9.55;;
49071;SDS011;52656;52.610;10.236;2023-03-01T02:42:06;18.65;;;9.93;;
49071;SDS011;52656;52.610;10.236;2023-03-01T02:44:36;16.45;;;9.60;;
49071;SDS011;52656;52.610;10.236;2023-03-01T02:47:01;17.37;;;9.10;;
49071;SDS011;52656;52.610;10.236;2023-03-01T02:49:29;19.10;;;9.27;;
49071;SDS011;52656;52.610;10.236;2023-03-01T02:57:28;17.80;;;9.82;;
49071;SDS011;52656;52.610;10.236;2023-03-01T02:59:55;15.85;;;9.23;;
49071;SDS011;52656;52.610;10.236;2023-03-01T03:02:23;19.50;;;10.52;;
49071;SDS011;52656;52.610;10.236;2023-03-01T03:05:07;15.75;;;10.18;;
49071;SDS011;52656;52.610;10.236;2023-03-01T03:07:33;18.83;;;10.63;;
49071;SDS011;52656;52.610;10.236;2023-03-01T03:10:00;16.33;;;10.20;;
49071;SDS011;52656;52.610;10.236;2023-03-01T03:12:26;17.67;;;10.25;;
49071;SDS011;52656;52.610;10.236;2023-03-01T03:14:51;15.98;;;9.75;;
49071;SDS011;52656;52.610;10.236;2023-03-01T03:17:17;16.98;;;8.93;;
49071;SDS011;52656;52.610;10.236;2023-03-01T03:19:42;17.13;;;10.00;;
49071;SDS011;52656;52.610;10.236;2023-03-01T03:22:10;16.40;;;8.90;;
49071;SDS011;52656;52.610;10.236;2023-03-01T03:27:03;13.23;;;8.15;;
49071;SDS011;52656;52.610;10.236;2023-03-01T03:29:30;16.60;;;8.90;;
49071;SDS011;52656;52.610;10.236;2023-03-01T03:31:55;14.57;;;8.57;;
49071;SDS011;52656;52.610;10.236;2023-03-01T03:34:20;12.60;;;8.00;;
49071;SDS011;52656;52.610;10.236;2023-03-01T03:36:46;16.92;;;9.77;;
49071;SDS011;52656;52.610;10.236;2023-03-01T03:39:11;15.97;;;9.60;;
49071;SDS011;52656;52.610;10.236;2023-03-01T03:41:36;13.38;;;8.60;;
49071;SDS011;52656;52.610;10.236;2023-03-01T03:44:02;12.65;;;8.30;;
49071;SDS011;52656;52.610;10.236;2023-03-01T03:46:27;13.25;;;7.97;;
49071;SDS011;52656;52.610;10.236;2023-03-01T03:48:52;16.83;;;8.30;;
49071;SDS011;52656;52.610;10.236;2023-03-01T03:51:18;14.07;;;8.55;;
49071;SDS011;52656;52.610;10.236;2023-03-01T03:53:44;14.05;;;8.88;;
49071;SDS011;52656;52.610;10.236;2023-03-01T03:56:10;12.35;;;8.23;;
49071;SDS011;52656;52.610;10.236;2023-03-01T04:01:02;12.43;;;7.87;;
49071;SDS011;52656;52.610;10.236;2023-03-01T04:03:28;14.93;;;8.25;;
49071;SDS011;52656;52.610;10.236;2023-03-01T04:05:54;13.63;;;8.33;;
49071;SDS011;52656;52.610;10.236;2023-03-01T04:08:22;13.83;;;8.93;;
49071;SDS011;52656;52.610;10.236;2023-03-01T04:13:15;14.45;;;7.80;;
49071;SDS011;52656;52.610;10.236;2023-03-01T04:15:44;10.90;;;7.63;;
49071;SDS011;52656;52.610;10.236;2023-03-01T04:18:14;12.30;;;8.50;;
49071;SDS011;52656;52.610;10.236;2023-03-01T04:20:40;13.03;;;8.13;;
49071;SDS011;52656;52.610;10.236;2023-03-01T04:25:53;13.37;;;8.53;;
49071;SDS011;52656;52.610;10.236;2023-03-01T04:28:38;12.73;;;7.50;;
49071;SDS011;52656;52.610;10.236;2023-03-01T04:31:16;14.60;;;8.30;;
49071;SDS011;52656;52.610;10.236;2023-03-01T04:33:44;13.27;;;8.40;;
49071;SDS011;52656;52.610;10.236;2023-03-01T04:36:11;14.60;;;8.20;;
49071;SDS011;52656;52.610;10.236;2023-03-01T04:38:38;13.87;;;8.27;;
49071;SDS011;52656;52.610;10.236;2023-03-01T04:41:05;12.53;;;8.03;;
49071;SDS011;52656;52.610;10.236;2023-03-01T04:43:32;12.30;;;8.00;;
49071;SDS011;52656;52.610;10.236;2023-03-01T04:46:02;12.87;;;8.03;;
49071;SDS011;52656;52.610;10.236;2023-03-01T04:48:29;11.57;;;7.63;;
49071;SDS011;52656;52.610;10.236;2023-03-01T04:50:55;13.80;;;7.63;;
49071;SDS011;52656;52.610;10.236;2023-03-01T04:53:21;14.13;;;8.70;;
49071;SDS011;52656;52.610;10.236;2023-03-01T04:55:46;12.70;;;7.90;;
49071;SDS011;52656;52.610;10.236;2023-03-01T04:58:11;14.00;;;8.25;;
49071;SDS011;52656;52.610;10.236;2023-03-01T05:00:37;13.27;;;8.40;;
49071;SDS011;52656;52.610;10.236;2023-03-01T05:03:02;14.50;;;8.20;;
49071;SDS011;52656;52.610;10.236;2023-03-01T05:05:32;13.32;;;8.27;;
49071;SDS011;52656;52.610;10.236;2023-03-01T05:08:00;12.83;;;7.73;;
49071;SDS011;52656;52.610;10.236;2023-03-01T05:10:28;12.37;;;7.73;;
49071;SDS011;52656;52.610;10.236;2023-03-01T05:12:55;12.03;;;7.60;;
49071;SDS011;52656;52.610;10.236;2023-03-01T05:15:22;13.93;;;8.47;;
49071;SDS011;52656;52.610;10.236;2023-03-01T05:17:50;16.07;;;8.93;;
49071;SDS011;52656;52.610;10.236;2023-03-01T05:22:41;13.83;;;8.83;;
49071;SDS011;52656;52.610;10.236;2023-03-01T05:25:07;11.80;;;8.02;;
49071;SDS011;52656;52.610;10.236;2023-03-01T05:27:32;11.48;;;7.60;;
49071;SDS011;52656;52.610;10.236;2023-03-01T05:29:58;10.57;;;7.03;;
49071;SDS011;52656;52.610;10.236;2023-03-01T05:32:23;14.75;;;8.85;;
49071;SDS011;52656;52.610;10.236;2023-03-01T05:34:49;11.13;;;8.15;;
49071;SDS011;52656;52.610;10.236;2023-03-01T05:37:14;15.48;;;8.20;;
49071;SDS011;52656;52.610;10.236;2023-03-01T05:39:39;12.23;;;8.25;;
49071;SDS011;52656;52.610;10.236;2023-03-01T05:42:08;12.90;;;8.00;;
49071;SDS011;52656;52.610;10.236;2023-03-01T05:44:35;11.93;;;7.67;;
49071;SDS011;52656;52.610;10.236;2023-03-01T05:47:01;12.70;;;8.43;;
49071;SDS011;52656;52.610;10.236;2023-03-01T05:49:26;11.70;;;7.72;;
49071;SDS011;52656;52.610;10.236;2023-03-01T05:51:52;12.02;;;7.82;;
49071;SDS011;52656;52.610;10.236;2023-03-01T05:54:18;14.00;;;8.23;;
49071;SDS011;52656;52.610;10.236;2023-03-01T05:56:45;16.90;;;8.50;;
49071;SDS011;52656;52.610;10.236;2023-03-01T05:59:10;13.75;;;9.27;;
49071;SDS011;52656;52.610;10.236;2023-03-01T06:01:36;16.42;;;9.93;;
49071;SDS011;52656;52.610;10.236;2023-03-01T06:04:02;15.95;;;10.05;;
49071;SDS011;52656;52.610;10.236;2023-03-01T06:06:28;15.27;;;10.43;;
49071;SDS011;52656;52.610;10.236;2023-03-01T06:08:54;16.05;;;11.25;;
49071;SDS011;52656;52.610;10.236;2023-03-01T06:11:20;17.23;;;11.10;;
49071;SDS011;52656;52.610;10.236;2023-03-01T06:13:46;18.37;;;12.00;;
49071;SDS011;52656;52.610;10.236;2023-03-01T06:16:12;20.25;;;12.00;;
49071;SDS011;52656;52.610;10.236;2023-03-01T06:18:38;16.17;;;10.87;;
49071;SDS011;52656;52.610;10.236;2023-03-01T06:21:04;18.75;;;10.85;;
49071;SDS011;52656;52.610;10.236;2023-03-01T06:23:30;19.87;;;11.73;;
49071;SDS011;52656;52.610;10.236;2023-03-01T06:25:56;20.52;;;12.38;;
49071;SDS011;52656;52.610;10.236;2023-03-01T06:28:21;15.90;;;10.07;;
49071;SDS011;52656;52.610;10.236;2023-03-01T06:30:47;16.20;;;9.93;;
49071;SDS011;52656;52.610;10.236;2023-03-01T06:33:13;14.32;;;9.77;;
49071;SDS011;52656;52.610;10.236;2023-03-01T06:35:38;15.35;;;9.15;;
49071;SDS011;52656;52.610;10.236;2023-03-01T06:38:04;15.20;;;9.82;;
49071;SDS011;52656;52.610;10.236;2023-03-01T06:40:31;13.73;;;8.80;;
49071;SDS011;52656;52.610;10.236;2023-03-01T06:42:56;13.97;;;9.13;;
49071;SDS011;52656;52.610;10.236;2023-03-01T06:45:22;14.40;;;9.15;;
49071;SDS011;52656;52.610;10.236;2023-03-01T06:47:49;15.90;;;9.13;;
49071;SDS011;52656;52.610;10.236;2023-03-01T06:50:15;15.45;;;9.32;;
49071;SDS011;52656;52.610;10.236;2023-03-01T06:52:42;16.67;;;10.47;;
49071;SDS011;52656;52.610;10.236;2023-03-01T06:55:09;18.60;;;10.27;;
49071;SDS011;52656;52.610;10.236;2023-03-01T06:57:35;17.25;;;10.93;;
49071;SDS011;52656;52.610;10.236;2023-03-01T07:00:00;17.38;;;11.02;;
49071;SDS011;52656;52.610;10.236;2023-03-01T07:02:26;16.65;;;12.18;;
49071;SDS011;52656;52.610;10.236;2023-03-01T07:04:51;17.75;;;12.20;;
49071;SDS011;52656;52.610;10.236;2023-03-01T07:07:17;16.27;;;11.30;;
49071;SDS011;52656;52.610;10.236;2023-03-01T07:09:44;20.08;;;11.93;;
49071;SDS011;52656;52.610;10.236;2023-03-01T07:12:10;15.87;;;10.03;;
49071;SDS011;52656;52.610;10.236;2023-03-01T07:14:35;15.15;;;11.02;;
49071;SDS011;52656;52.610;10.236;2023-03-01T07:17:01;18.67;;;12.43;;
49071;SDS011;52656;52.610;10.236;2023-03-01T07:19:26;16.40;;;12.13;;
49071;SDS011;52656;52.610;10.236;2023-03-01T07:21:51;16.45;;;11.27;;
49071;SDS011;52656;52.610;10.236;2023-03-01T07:24:17;14.47;;;11.10;;
49071;SDS011;52656;52.610;10.236;2023-03-01T07:26:42;17.40;;;11.70;;
49071;SDS011;52656;52.610;10.236;2023-03-01T07:29:07;17.42;;;11.07;;
49071;SDS011;52656;52.610;10.236;2023-03-01T07:31:35;15.48;;;10.40;;
49071;SDS011;52656;52.610;10.236;2023-03-01T07:34:00;15.18;;;9.27;;
49071;SDS011;52656;52.610;10.236;2023-03-01T07:36:25;15.90;;;10.33;;
49071;SDS011;52656;52.610;10.236;2023-03-01T07:38:51;16.03;;;11.53;;
49071;SDS011;52656;52.610;10.236;2023-03-01T07:41:16;17.65;;;11.63;;
49071;SDS011;52656;52.610;10.236;2023-03-01T07:43:42;16.38;;;10.63;;
49071;SDS011;52656;52.610;10.236;2023-03-01T07:46:08;13.10;;;10.32;;
49071;SDS011;52656;52.610;10.236;2023-03-01T07:48:33;12.65;;;9.55;;
49071;SDS011;52656;52.610;10.236;2023-03-01T07:50:59;13.05;;;7.90;;
49071;SDS011;52656;52.610;10.236;2023-03-01T07:53:25;9.55;;;7.13;;
49071;SDS011;52656;52.610;10.236;2023-03-01T07:56:07;8.23;;;6.05;;
49071;SDS011;52656;52.610;10.236;2023-03-01T07:58:39;8.65;;;5.75;;
49071;SDS011;52656;52.610;10.236;2023-03-01T08:01:06;9.07;;;5.65;;
49071;SDS011;52656;52.610;10.236;2023-03-01T08:03:34;9.93;;;6.63;;
49071;SDS011;52656;52.610;10.236;2023-03-01T08:06:00;9.90;;;6.97;;
49071;SDS011;52656;52.610;10.236;2023-03-01T08:08:30;10.02;;;6.88;;
49071;SDS011;52656;52.610;10.236;2023-03-01T08:13:22;10.05;;;6.53;;
49071;SDS011;52656;52.610;10.236;2023-03-01T08:15:48;9.02;;;6.20;;
49071;SDS011;52656;52.610;10.236;2023-03-01T08:18:14;10.27;;;6.22;;
49071;SDS011;52656;52.610;10.236;2023-03-01T08:20:40;6.90;;;5.10;;
49071;SDS011;52656;52.610;10.236;2023-03-01T08:23:05;7.03;;;5.10;;
49071;SDS011;52656;52.610;10.236;2023-03-01T08:25:30;8.32;;;6.32;;
49071;SDS011;52656;52.610;10.236;2023-03-01T08:27:56;7.50;;;5.75;;
49071;SDS011;52656;52.610;10.236;2023-03-01T08:30:21;8.43;;;5.70;;
49071;SDS011;52656;52.610;10.236;2023-03-01T08:32:48;7.20;;;5.60;;
49071;SDS011;52656;52.610;10.236;2023-03-01T08:35:14;7.25;;;5.10;;
49071;SDS011;52656;52.610;10.236;2023-03-01T08:37:39;6.93;;;4.93;;
49071;SDS011;52656;52.610;10.236;2023-03-01T08:40:04;7.70;;;5.00;;
49071;SDS011;52656;52.610;10.236;2023-03-01T08:42:34;8.18;;;4.90;;
49071;SDS011;52656;52.610;10.236;2023-03-01T08:45:00;8.10;;;4.72;;
49071;SDS011;52656;52.610;10.236;2023-03-01T08:47:25;6.63;;;4.63;;
49071;SDS011;52656;52.610;10.236;2023-03-01T08:49:51;6.47;;;4.93;;
49071;SDS011;52656;52.610;10.236;2023-03-01T08:52:16;8.40;;;5.20;;
49071;SDS011;52656;52.610;10.236;2023-03-01T08:54:42;7.38;;;5.50;;
49071;SDS011;52656;52.610;10.236;2023-03-01T08:57:07;7.43;;;5.03;;
49071;SDS011;52656;52.610;10.236;2023-03-01T08:59:34;8.95;;;5.82;;
49071;SDS011;52656;52.610;10.236;2023-03-01T09:02:03;8.95;;;5.60;;
49071;SDS011;52656;52.610;10.236;2023-03-01T09:04:29;8.48;;;5.55;;
49071;SDS011;52656;52.610;10.236;2023-03-01T09:06:54;8.05;;;5.30;;
49071;SDS011;52656;52.610;10.236;2023-03-01T09:09:19;7.72;;;5.22;;
49071;SDS011;52656;52.610;10.236;2023-03-01T09:11:46;7.53;;;4.85;;
49071;SDS011;52656;52.610;10.236;2023-03-01T09:14:12;7.10;;;4.57;;
49071;SDS011;52656;52.610;10.236;2023-03-01T09:16:38;6.63;;;3.88;;
49071;SDS011;52656;52.610;10.236;2023-03-01T09:19:04;8.70;;;4.35;;
49071;SDS011;52656;52.610;10.236;2023-03-01T09:21:30;6.55;;;4.30;;
49071;SDS011;52656;52.610;10.236;2023-03-01T09:23:56;6.47;;;3.60;;
49071;SDS011;52656;52.610;10.236;2023-03-01T09:28:49;6.82;;;3.90;;
49071;SDS011;52656;52.610;10.236;2023-03-01T09:31:17;5.57;;;3.53;;
49071;SDS011;52656;52.610;10.236;2023-03-01T09:33:45;6.18;;;3.17;;
49071;SDS011;52656;52.610;10.236;2023-03-01T09:36:18;7.38;;;4.03;;
49071;SDS011;52656;52.610;10.236;2023-03-01T09:38:46;5.88;;;3.58;;
49071;SDS011;52656;52.610;10.236;2023-03-01T09:43:52;5.00;;;3.35;;
49071;SDS011;52656;52.610;10.236;2023-03-01T09:46:25;5.20;;;2.90;;
49071;SDS011;52656;52.610;10.236;2023-03-01T09:48:53;5.40;;;3.15;;
49071;SDS011;52656;52.610;10.236;2023-03-01T09:51:34;6.97;;;3.47;;
49071;SDS011;52656;52.610;10.236;2023-03-01T09:54:01;5.40;;;2.83;;
49071;SDS011;52656;52.610;10.236;2023-03-01T09:56:30;7.45;;;3.55;;
49071;SDS011;52656;52.610;10.236;2023-03-01T10:04:42;5.85;;;3.00;;
49071;SDS011;52656;52.610;10.236;2023-03-01T10:07:15;5.78;;;3.50;;
49071;SDS011;52656;52.610;10.236;2023-03-01T10:09:49;6.72;;;2.97;;
49071;SDS011;52656;52.610;10.236;2023-03-01T10:14:50;5.15;;;3.00;;
49071;SDS011;52656;52.610;10.236;2023-03-01T10:17:37;7.53;;;3.13;;
49071;SDS011;52656;52.610;10.236;2023-03-01T10:22:49;5.35;;;3.13;;
49071;SDS011;52656;52.610;10.236;2023-03-01T10:28:19;5.10;;;3.22;;
49071;SDS011;52656;52.610;10.236;2023-03-01T10:30:46;5.28;;;2.45;;
49071;SDS011;52656;52.610;10.236;2023-03-01T10:33:25;5.72;;;3.35;;
49071;SDS011;52656;52.610;10.236;2023-03-01T10:35:54;7.22;;;3.53;;
49071;SDS011;52656;52.610;10.236;2023-03-01T10:38:20;6.40;;;3.55;;
49071;SDS011;52656;52.610;10.236;2023-03-01T10:40:53;5.97;;;3.10;;
49071;SDS011;52656;52.610;10.236;2023-03-01T10:43:19;5.70;;;3.00;;
49071;SDS011;52656;52.610;10.236;2023-03-01T10:45:44;5.35;;;3.10;;
49071;SDS011;52656;52.610;10.236;2023-03-01T10:51:04;4.43;;;2.72;;
49071;SDS011;52656;52.610;10.236;2023-03-01T10:53:33;5.85;;;3.00;;
49071;SDS011;52656;52.610;10.236;2023-03-01T10:56:13;6.72;;;2.92;;
49071;SDS011;52656;52.610;10.236;2023-03-01T10:58:41;5.20;;;2.90;;
49071;SDS011;52656;52.610;10.236;2023-03-01T11:01:29;3.85;;;2.20;;
49071;SDS011;52656;52.610;10.236;2023-03-01T11:06:32;5.32;;;2.58;;
49071;SDS011;52656;52.610;10.236;2023-03-01T11:09:15;6.85;;;3.70;;
49071;SDS011;52656;52.610;10.236;2023-03-01T11:11:43;5.28;;;3.10;;
49071;SDS011;52656;52.610;10.236;2023-03-01T11:16:47;5.70;;;2.78;;
49071;SDS011;52656;52.610;10.236;2023-03-01T11:19:22;6.63;;;3.03;;
49071;SDS011;52656;52.610;10.236;2023-03-01T11:24:16;4.53;;;2.75;;
49071;SDS011;52656;52.610;10.236;2023-03-01T11:26:44;5.97;;;2.95;;
49071;SDS011;52656;52.610;10.236;2023-03-01T11:29:21;6.43;;;3.22;;
49071;SDS011;52656;52.610;10.236;2023-03-01T11:31:51;5.07;;;2.72;;
49071;SDS011;52656;52.610;10.236;2023-03-01T11:34:19;7.90;;;2.95;;
49071;SDS011;52656;52.610;10.236;2023-03-01T11:36:58;6.70;;;3.20;;
49071;SDS011;52656;52.610;10.236;2023-03-01T11:42:19;4.25;;;2.58;;
49071;SDS011;52656;52.610;10.236;2023-03-01T11:44:46;3.80;;;2.20;;
49071;SDS011;52656;52.610;10.236;2023-03-01T11:52:51;4.50;;;1.95;;
49071;SDS011;52656;52.610;10.236;2023-03-01T12:01:23;4.10;;;2.33;;
49071;SDS011;52656;52.610;10.236;2023-03-01T12:07:05;4.05;;;2.13;;
49071;SDS011;52656;52.610;10.236;2023-03-01T12:09:58;6.32;;;2.80;;
49071;SDS011;52656;52.610;10.236;2023-03-01T12:12:48;4.28;;;2.53;;
49071;SDS011;52656;52.610;10.236;2023-03-01T12:15:30;4.68;;;2.70;;
49071;SDS011;52656;52.610;10.236;2023-03-01T12:18:40;3.05;;;1.70;;
49071;SDS011;52656;52.610;10.236;2023-03-01T12:21:42;1.85;;;1.52;;
49071;SDS011;52656;52.610;10.236;2023-03-01T12:24:49;6.07;;;2.08;;
49071;SDS011;52656;52.610;10.236;2023-03-01T12:33:17;4.30;;;2.50;;
49071;SDS011;52656;52.610;10.236;2023-03-01T12:35:57;4.70;;;2.28;;
49071;SDS011;52656;52.610;10.236;2023-03-01T12:38:32;4.75;;;2.85;;
49071;SDS011;52656;52.610;10.236;2023-03-01T12:41:53;3.47;;;2.13;;
49071;SDS011;52656;52.610;10.236;2023-03-01T12:44:15;3.90;;;2.28;;
49071;SDS011;52656;52.610;10.236;2023-03-01T12:49:28;3.30;;;1.88;;
49071;SDS011;52656;52.610;10.236;2023-03-01T12:52:09;4.72;;;1.88;;
49071;SDS011;52656;52.610;10.236;2023-03-01T12:54:44;3.85;;;1.90;;
49071;SDS011;52656;52.610;10.236;2023-03-01T13:02:33;3.65;;;2.17;;
49071;SDS011;52656;52.610;10.236;2023-03-01T13:10:36;2.95;;;1.90;;
49071;SDS011;52656;52.610;10.236;2023-03-01T13:13:21;4.03;;;2.47;;
49071;SDS011;52656;52.610;10.236;2023-03-01T13:15:49;3.85;;;2.25;;
49071;SDS011;52656;52.610;10.236;2023-03-01T13:20:53;5.65;;;2.53;;
49071;SDS011;52656;52.610;10.236;2023-03-01T13:31:06;4.53;;;2.40;;
49071;SDS011;52656;52.610;10.236;2023-03-01T13:33:39;3.88;;;2.28;;
49071;SDS011;52656;52.610;10.236;2023-03-01T13:36:11;5.07;;;2.45;;
49071;SDS011;52656;52.610;10.236;2023-03-01T13:41:53;4.03;;;2.47;;
49071;SDS011;52656;52.610;10.236;2023-03-01T13:46:49;3.05;;;1.90;;
49071;SDS011;52656;52.610;10.236;2023-03-01T13:49:17;4.60;;;2.17;;
49071;SDS011;52656;52.610;10.236;2023-03-01T13:51:48;4.80;;;2.05;;
49071;SDS011;52656;52.610;10.236;2023-03-01T13:54:15;4.47;;;2.17;;
49071;SDS011;52656;52.610;10.236;2023-03-01T13:56:45;3.58;;;2.20;;
49071;SDS011;52656;52.610;10.236;2023-03-01T13:59:15;3.58;;;2.17;;
49071;SDS011;52656;52.610;10.236;2023-03-01T14:01:43;4.15;;;2.17;;
49071;SDS011;52656;52.610;10.236;2023-03-01T14:04:21;4.82;;;1.88;;
49071;SDS011;52656;52.610;10.236;2023-03-01T14:06:49;5.60;;;2.13;;
49071;SDS011;52656;52.610;10.236;2023-03-01T14:14:32;4.07;;;2.15;;
49071;SDS011;52656;52.610;10.236;2023-03-01T14:19:54;3.47;;;1.42;;
49071;SDS011;52656;52.610;10.236;2023-03-01T14:22:43;3.50;;;1.85;;
49071;SDS011;52656;52.610;10.236;2023-03-01T14:25:45;3.55;;;2.30;;
49071;SDS011;52656;52.610;10.236;2023-03-01T14:30:40;4.10;;;2.13;;
49071;SDS011;52656;52.610;10.236;2023-03-01T14:35:55;4.05;;;1.80;;
49071;SDS011;52656;52.610;10.236;2023-03-01T14:38:22;5.45;;;2.22;;
49071;SDS011;52656;52.610;10.236;2023-03-01T14:40:53;4.03;;;2.05;;
49071;SDS011;52656;52.610;10.236;2023-03-01T14:43:23;4.03;;;2.10;;
49071;SDS011;52656;52.610;10.236;2023-03-01T14:45:50;5.07;;;1.88;;
49071;SDS011;52656;52.610;10.236;2023-03-01T14:48:16;2.72;;;1.75;;
49071;SDS011;52656;52.610;10.236;2023-03-01T14:50:43;3.00;;;1.73;;
49071;SDS011;52656;52.610;10.236;2023-03-01T14:53:15;3.08;;;2.00;;
49071;SDS011;52656;52.610;10.236;2023-03-01T14:55:53;5.18;;;1.88;;
49071;SDS011;52656;52.610;10.236;2023-03-01T14:58:21;4.38;;;2.08;;
49071;SDS011;52656;52.610;10.236;2023-03-01T15:00:56;2.50;;;1.77;;
49071;SDS011;52656;52.610;10.236;2023-03-01T15:05:49;2.80;;;1.60;;
49071;SDS011;52656;52.610;10.236;2023-03-01T15:08:19;2.92;;;1.85;;
49071;SDS011;52656;52.610;10.236;2023-03-01T15:14:27;2.72;;;1.70;;
49071;SDS011;52656;52.610;10.236;2023-03-01T15:17:03;2.13;;;1.17;;
49071;SDS011;52656;52.610;10.236;2023-03-01T15:19:28;2.72;;;1.52;;
49071;SDS011;52656;52.610;10.236;2023-03-01T15:21:54;1.60;;;1.23;;
49071;SDS011;52656;52.610;10.236;2023-03-01T15:24:24;2.35;;;1.42;;
49071;SDS011;52656;52.610;10.236;2023-03-01T15:26:56;3.35;;;1.77;;
49071;SDS011;52656;52.610;10.236;2023-03-01T15:29:27;2.65;;;1.67;;
49071;SDS011;52656;52.610;10.236;2023-03-01T15:32:02;4.10;;;1.67;;
49071;SDS011;52656;52.610;10.236;2023-03-01T15:36:57;2.35;;;1.50;;
49071;SDS011;52656;52.610;10.236;2023-03-01T15:42:09;2.17;;;1.42;;
49071;SDS011;52656;52.610;10.236;2023-03-01T15:44:39;3.25;;;2.05;;
49071;SDS011;52656;52.610;10.236;2023-03-01T15:47:23;3.83;;;2.25;;
49071;SDS011;52656;52.610;10.236;2023-03-01T15:49:51;4.45;;;2.35;;
49071;SDS011;52656;52.610;10.236;2023-03-01T15:52:23;2.70;;;1.50;;
49071;SDS011;52656;52.610;10.236;2023-03-01T15:54:55;3.05;;;1.40;;
49071;SDS011;52656;52.610;10.236;2023-03-01T15:57:28;2.67;;;1.50;;
49071;SDS011;52656;52.610;10.236;2023-03-01T16:02:20;4.50;;;2.80;;
49071;SDS011;52656;52.610;10.236;2023-03-01T16:04:47;3.95;;;2.80;;
49071;SDS011;52656;52.610;10.236;2023-03-01T16:07:13;2.40;;;1.33;;
49071;SDS011;52656;52.610;10.236;2023-03-01T16:09:39;2.58;;;1.60;;
49071;SDS011;52656;52.610;10.236;2023-03-01T16:12:05;2.97;;;1.70;;
49071;SDS011;52656;52.610;10.236;2023-03-01T16:14:31;3.90;;;2.17;;
49071;SDS011;52656;52.610;10.236;2023-03-01T16:16:56;3.00;;;1.70;;
49071;SDS011;52656;52.610;10.236;2023-03-01T16:19:21;4.53;;;2.70;;
49071;SDS011;52656;52.610;10.236;2023-03-01T16:21:47;4.43;;;2.37;;
49071;SDS011;52656;52.610;10.236;2023-03-01T16:24:14;4.57;;;2.90;;
49071;SDS011;52656;52.610;10.236;2023-03-01T16:26:39;4.65;;;2.90;;
49071;SDS011;52656;52.610;10.236;2023-03-01T16:29:05;7.38;;;3.05;;
49071;SDS011;52656;52.610;10.236;2023-03-01T16:31:30;4.65;;;2.58;;
49071;SDS011;52656;52.610;10.236;2023-03-01T16:33:56;3.25;;;1.92;;
49071;SDS011;52656;52.610;10.236;2023-03-01T16:36:23;2.55;;;1.90;;
49071;SDS011;52656;52.610;10.236;2023-03-01T16:38:53;3.20;;;1.95;;
49071;SDS011;52656;52.610;10.236;2023-03-01T16:41:20;4.20;;;2.10;;
49071;SDS011;52656;52.610;10.236;2023-03-01T16:43:47;5.00;;;2.63;;
49071;SDS011;52656;52.610;10.236;2023-03-01T16:48:41;4.93;;;2.58;;
49071;SDS011;52656;52.610;10.236;2023-03-01T16:51:06;5.07;;;2.50;;